createdAt,value
2017-08-18T00:00:38.519Z,0.00
2017-08-18T00:01:38.171Z,0.00
2017-08-18T00:02:38.165Z,0.00
2017-08-18T00:03:38.159Z,0.00
2017-08-18T00:04:53.045Z,0.00
2017-08-18T00:05:38.181Z,0.00
2017-08-18T00:06:38.174Z,0.00
2017-08-18T00:07:38.120Z,0.00
2017-08-18T00:08:38.137Z,0.00
2017-08-18T00:09:38.109Z,0.00
2017-08-18T00:10:38.101Z,0.00
2017-08-18T00:11:38.542Z,0.00
2017-08-18T00:12:38.089Z,0.00
2017-08-18T00:13:38.081Z,0.00
2017-08-18T00:14:38.086Z,0.00
2017-08-18T00:15:38.086Z,0.00
2017-08-18T00:16:38.062Z,0.00
2017-08-18T00:17:38.502Z,0.00
2017-08-18T00:18:38.060Z,0.00
2017-08-18T00:19:38.056Z,0.00
2017-08-18T00:20:38.038Z,0.00
2017-08-18T00:21:38.040Z,0.00
2017-08-18T00:22:38.030Z,0.00
2017-08-18T00:23:38.062Z,0.00
2017-08-18T00:24:38.012Z,0.00
2017-08-18T00:25:38.016Z,0.00
2017-08-18T00:26:38.020Z,0.00
2017-08-18T00:27:37.995Z,0.00
2017-08-18T00:28:37.992Z,0.00
2017-08-18T00:29:38.319Z,0.00
2017-08-18T00:30:37.978Z,0.00
2017-08-18T00:31:37.967Z,0.00
2017-08-18T00:32:37.960Z,0.00
2017-08-18T00:33:37.965Z,0.00
2017-08-18T00:34:37.956Z,0.00
2017-08-18T00:35:38.367Z,0.00
2017-08-18T00:36:37.947Z,0.00
2017-08-18T00:37:37.949Z,0.00
2017-08-18T00:38:37.936Z,0.00
2017-08-18T00:39:37.932Z,0.00
2017-08-18T00:40:37.910Z,0.00
2017-08-18T00:41:37.942Z,0.00
2017-08-18T00:42:37.908Z,0.00
2017-08-18T00:43:37.889Z,0.00
2017-08-18T00:44:37.896Z,0.00
2017-08-18T00:45:37.883Z,0.00
2017-08-18T00:46:38.188Z,0.00
2017-08-18T00:47:37.875Z,0.00
2017-08-18T00:48:37.859Z,0.00
2017-08-18T00:49:37.852Z,0.00
2017-08-18T00:50:37.856Z,0.00
2017-08-18T00:51:37.839Z,0.00
2017-08-18T00:52:38.276Z,0.00
2017-08-18T00:53:37.826Z,0.00
2017-08-18T00:54:37.817Z,0.00
2017-08-18T00:55:37.812Z,0.00
2017-08-18T00:56:37.815Z,0.00
2017-08-18T00:57:37.799Z,0.00
2017-08-18T00:58:38.217Z,0.00
2017-08-18T00:59:37.789Z,0.00
2017-08-18T01:00:37.777Z,0.00
2017-08-18T01:01:37.782Z,0.00
2017-08-18T01:02:37.795Z,0.00
2017-08-18T01:03:37.771Z,0.00
2017-08-18T01:04:38.211Z,0.00
2017-08-18T01:05:37.747Z,0.00
2017-08-18T01:06:37.739Z,0.00
2017-08-18T01:07:37.744Z,0.00
2017-08-18T01:08:37.737Z,0.00
2017-08-18T01:09:37.733Z,0.00
2017-08-18T01:10:38.171Z,0.00
2017-08-18T01:11:37.717Z,0.00
2017-08-18T01:12:37.710Z,0.00
2017-08-18T01:13:37.700Z,0.00
2017-08-18T01:14:37.691Z,0.00
2017-08-18T01:15:37.691Z,0.00
2017-08-18T01:16:37.720Z,0.00
2017-08-18T01:17:38.038Z,0.00
2017-08-18T01:18:37.670Z,0.00
2017-08-18T01:19:37.654Z,0.00
2017-08-18T01:20:37.658Z,0.00
2017-08-18T01:21:37.648Z,0.00
2017-08-18T01:22:37.636Z,0.00
2017-08-18T01:23:38.063Z,0.00
2017-08-18T01:24:37.624Z,0.00
2017-08-18T01:25:37.615Z,0.00
2017-08-18T01:26:37.609Z,0.00
2017-08-18T01:27:37.613Z,0.00
2017-08-18T01:28:37.595Z,0.00
2017-08-18T01:29:37.624Z,0.00
2017-08-18T01:30:37.600Z,0.00
2017-08-18T01:31:37.570Z,0.00
2017-08-18T01:32:37.584Z,0.00
2017-08-18T01:33:37.788Z,0.00
2017-08-18T01:34:37.566Z,0.00
2017-08-18T01:35:37.555Z,0.00
2017-08-18T01:36:37.549Z,0.00
2017-08-18T01:37:37.564Z,0.00
2017-08-18T01:38:37.538Z,0.00
2017-08-18T01:39:37.872Z,0.00
2017-08-18T01:40:37.525Z,0.00
2017-08-18T01:41:37.508Z,0.00
2017-08-18T01:42:37.513Z,0.00
2017-08-18T01:43:37.495Z,0.00
2017-08-18T01:44:37.486Z,0.00
2017-08-18T01:45:37.510Z,0.00
2017-08-18T01:46:37.493Z,0.00
2017-08-18T01:47:37.491Z,0.00
2017-08-18T01:48:37.892Z,0.00
2017-08-18T01:49:37.475Z,0.00
2017-08-18T01:50:37.459Z,0.00
2017-08-18T01:51:37.454Z,0.00
2017-08-18T01:52:37.441Z,0.00
2017-08-18T01:53:37.426Z,0.00
2017-08-18T01:54:37.821Z,0.00
2017-08-18T01:55:37.419Z,0.00
2017-08-18T01:56:37.418Z,0.00
2017-08-18T01:57:37.407Z,0.00
2017-08-18T01:58:37.398Z,0.00
2017-08-18T01:59:37.396Z,0.00
2017-08-18T02:00:37.737Z,0.00
2017-08-18T02:01:37.391Z,0.00
2017-08-18T02:02:37.381Z,0.00
2017-08-18T02:03:37.388Z,0.00
2017-08-18T02:04:37.357Z,0.00
2017-08-18T02:05:37.350Z,0.00
2017-08-18T02:06:37.701Z,0.00
2017-08-18T02:07:37.337Z,0.00
2017-08-18T02:08:37.327Z,0.00
2017-08-18T02:09:37.321Z,0.00
2017-08-18T02:10:37.317Z,0.00
2017-08-18T02:11:37.320Z,0.00
2017-08-18T02:12:37.660Z,0.00
2017-08-18T02:13:37.310Z,0.00
2017-08-18T02:14:37.300Z,0.00
2017-08-18T02:15:37.287Z,0.00
2017-08-18T02:16:37.276Z,0.00
2017-08-18T02:17:37.268Z,0.00
2017-08-18T02:18:37.698Z,0.00
2017-08-18T02:19:37.274Z,0.00
2017-08-18T02:20:37.269Z,0.00
2017-08-18T02:21:37.262Z,0.00
2017-08-18T02:22:37.239Z,0.00
2017-08-18T02:23:37.248Z,0.00
2017-08-18T02:24:37.677Z,0.00
2017-08-18T02:25:37.227Z,0.00
2017-08-18T02:26:37.225Z,0.00
2017-08-18T02:27:37.209Z,0.00
2017-08-18T02:28:37.211Z,0.00
2017-08-18T02:29:37.187Z,0.00
2017-08-18T02:30:37.531Z,0.00
2017-08-18T02:31:37.177Z,0.00
2017-08-18T02:32:37.177Z,0.00
2017-08-18T02:33:37.164Z,0.00
2017-08-18T02:34:37.173Z,0.00
2017-08-18T02:35:37.159Z,0.00
2017-08-18T02:36:37.591Z,0.00
2017-08-18T02:37:37.151Z,0.00
2017-08-18T02:38:37.125Z,0.00
2017-08-18T02:39:37.127Z,0.00
2017-08-18T02:40:37.125Z,0.00
2017-08-18T02:41:37.128Z,0.00
2017-08-18T02:42:37.130Z,0.00
2017-08-18T02:43:37.111Z,0.00
2017-08-18T02:44:37.089Z,0.00
2017-08-18T02:45:37.084Z,0.00
2017-08-18T02:46:37.085Z,0.00
2017-08-18T02:47:37.325Z,0.00
2017-08-18T02:48:37.074Z,0.00
2017-08-18T02:49:37.077Z,0.00
2017-08-18T02:50:37.051Z,0.00
2017-08-18T02:51:37.056Z,0.00
2017-08-18T02:52:37.046Z,0.00
2017-08-18T02:53:37.331Z,0.00
2017-08-18T02:54:37.039Z,0.00
2017-08-18T02:55:37.028Z,0.00
2017-08-18T02:56:37.029Z,0.00
2017-08-18T02:57:37.006Z,0.00
2017-08-18T02:58:37.001Z,0.00
2017-08-18T02:59:37.024Z,0.00
2017-08-18T03:00:36.996Z,0.00
2017-08-18T03:01:36.987Z,0.00
2017-08-18T03:02:37.183Z,0.00
2017-08-18T03:03:36.974Z,0.00
2017-08-18T03:04:36.970Z,0.00
2017-08-18T03:05:36.970Z,0.00
2017-08-18T03:06:36.946Z,0.00
2017-08-18T03:07:36.938Z,0.00
2017-08-18T03:08:36.969Z,0.00
2017-08-18T03:09:36.924Z,0.00
2017-08-18T03:10:36.929Z,0.00
2017-08-18T03:11:36.923Z,0.00
2017-08-18T03:12:37.356Z,0.00
2017-08-18T03:13:36.911Z,0.00
2017-08-18T03:14:36.907Z,0.00
2017-08-18T03:15:36.898Z,0.00
2017-08-18T03:16:36.895Z,0.00
2017-08-18T03:17:36.883Z,0.00
2017-08-18T03:18:36.903Z,0.00
2017-08-18T03:19:36.871Z,0.00
2017-08-18T03:20:36.854Z,0.00
2017-08-18T03:21:36.846Z,0.00
2017-08-18T03:22:36.848Z,0.00
2017-08-18T03:23:37.262Z,0.00
2017-08-18T03:24:36.824Z,0.00
2017-08-18T03:25:36.836Z,0.00
2017-08-18T03:26:36.815Z,0.00
2017-08-18T03:27:36.824Z,0.00
2017-08-18T03:28:36.811Z,0.00
2017-08-18T03:29:37.093Z,0.00
2017-08-18T03:30:36.799Z,0.00
2017-08-18T03:31:36.793Z,0.00
2017-08-18T03:32:36.794Z,0.00
2017-08-18T03:33:36.779Z,0.00
2017-08-18T03:34:36.775Z,0.00
2017-08-18T03:35:37.060Z,0.00
2017-08-18T03:36:36.756Z,0.00
2017-08-18T03:37:36.753Z,0.00
2017-08-18T03:38:36.742Z,0.00
2017-08-18T03:39:36.730Z,0.00
2017-08-18T03:40:36.731Z,0.00
2017-08-18T03:41:37.038Z,0.00
2017-08-18T03:42:36.717Z,0.00
2017-08-18T03:43:36.717Z,0.00
2017-08-18T03:44:36.704Z,0.00
2017-08-18T03:45:36.687Z,0.00
2017-08-18T03:46:36.695Z,0.00
2017-08-18T03:47:37.100Z,0.00
2017-08-18T03:48:36.693Z,0.00
2017-08-18T03:49:36.681Z,0.00
2017-08-18T03:50:36.656Z,0.00
2017-08-18T03:51:36.656Z,0.00
2017-08-18T03:52:36.659Z,0.00
2017-08-18T03:53:36.674Z,4.00
2017-08-18T03:54:36.630Z,4.00
2017-08-18T03:55:36.620Z,0.00
2017-08-18T03:56:36.625Z,0.00
2017-08-18T03:57:36.605Z,4.00
2017-08-18T03:58:36.975Z,4.00
2017-08-18T03:59:36.594Z,0.00
2017-08-18T04:00:36.599Z,4.00
2017-08-18T04:01:36.611Z,4.00
2017-08-18T04:02:36.588Z,4.00
2017-08-18T04:03:36.578Z,4.00
2017-08-18T04:04:36.791Z,4.00
2017-08-18T04:05:36.569Z,4.00
2017-08-18T04:06:36.560Z,8.00
2017-08-18T04:07:36.551Z,8.00
2017-08-18T04:08:36.536Z,12.00
2017-08-18T04:09:36.537Z,12.00
2017-08-18T04:10:36.831Z,12.00
2017-08-18T04:11:36.519Z,16.00
2017-08-18T04:12:36.504Z,16.00
2017-08-18T04:13:36.519Z,16.00
2017-08-18T04:14:36.501Z,16.00
2017-08-18T04:15:36.506Z,20.00
2017-08-18T04:16:36.851Z,24.00
2017-08-18T04:17:36.489Z,28.00
2017-08-18T04:18:36.469Z,28.00
2017-08-18T04:19:36.471Z,32.00
2017-08-18T04:20:36.469Z,36.00
2017-08-18T04:21:36.457Z,40.00
2017-08-18T04:22:36.744Z,40.00
2017-08-18T04:23:36.446Z,44.00
2017-08-18T04:24:36.435Z,52.00
2017-08-18T04:25:36.424Z,56.00
2017-08-18T04:26:36.420Z,60.00
2017-08-18T04:27:36.421Z,64.00
2017-08-18T04:28:36.714Z,56.00
2017-08-18T04:29:36.398Z,56.00
2017-08-18T04:30:36.395Z,60.00
2017-08-18T04:31:36.384Z,60.00
2017-08-18T04:32:36.371Z,56.00
2017-08-18T04:33:36.380Z,56.00
2017-08-18T04:34:36.396Z,60.00
2017-08-18T04:35:36.352Z,68.00
2017-08-18T04:36:36.349Z,72.00
2017-08-18T04:37:36.344Z,84.00
2017-08-18T04:38:36.332Z,88.00
2017-08-18T04:39:36.685Z,92.00
2017-08-18T04:40:36.331Z,92.00
2017-08-18T04:41:36.312Z,104.00
2017-08-18T04:42:36.318Z,108.00
2017-08-18T04:43:36.312Z,120.00
2017-08-18T04:44:36.310Z,128.00
2017-08-18T04:45:36.504Z,136.00
2017-08-18T04:46:36.282Z,132.00
2017-08-18T04:47:36.277Z,140.00
2017-08-18T04:48:36.275Z,140.00
2017-08-18T04:49:36.268Z,136.00
2017-08-18T04:50:36.252Z,148.00
2017-08-18T04:51:36.279Z,152.00
2017-08-18T04:52:36.252Z,152.00
2017-08-18T04:53:36.227Z,156.00
2017-08-18T04:54:36.227Z,160.00
2017-08-18T04:55:36.214Z,164.00
2017-08-18T04:56:36.565Z,164.00
2017-08-18T04:57:36.216Z,164.00
2017-08-18T04:58:36.197Z,168.00
2017-08-18T04:59:36.205Z,172.00
2017-08-18T05:00:36.198Z,176.00
2017-08-18T05:01:36.190Z,184.00
2017-08-18T05:02:36.215Z,192.00
2017-08-18T05:03:36.179Z,200.00
2017-08-18T05:04:36.168Z,196.00
2017-08-18T05:05:36.154Z,200.00
2017-08-18T05:06:36.354Z,204.00
2017-08-18T05:07:36.141Z,196.00
2017-08-18T05:08:36.141Z,196.00
2017-08-18T05:09:36.137Z,188.00
2017-08-18T05:10:36.129Z,176.00
2017-08-18T05:11:36.111Z,168.00
2017-08-18T05:12:36.504Z,164.00
2017-08-18T05:13:36.114Z,144.00
2017-08-18T05:14:36.107Z,140.00
2017-08-18T05:15:36.098Z,148.00
2017-08-18T05:16:36.079Z,148.00
2017-08-18T05:17:36.068Z,140.00
2017-08-18T05:18:36.457Z,128.00
2017-08-18T05:19:36.073Z,136.00
2017-08-18T05:20:36.059Z,180.00
2017-08-18T05:21:36.057Z,184.00
2017-08-18T05:22:36.047Z,180.00
2017-08-18T05:23:36.044Z,196.00
2017-08-18T05:24:36.434Z,208.00
2017-08-18T05:25:36.027Z,208.00
2017-08-18T05:26:36.008Z,204.00
2017-08-18T05:27:36.011Z,192.00
2017-08-18T05:28:35.999Z,184.00
2017-08-18T05:29:35.988Z,180.00
2017-08-18T05:30:36.341Z,172.00
2017-08-18T05:31:35.988Z,164.00
2017-08-18T05:32:35.969Z,152.00
2017-08-18T05:33:35.971Z,148.00
2017-08-18T05:34:35.963Z,140.00
2017-08-18T05:35:35.953Z,136.00
2017-08-18T05:36:36.158Z,140.00
2017-08-18T05:37:35.933Z,140.00
2017-08-18T05:38:35.929Z,144.00
2017-08-18T05:39:35.920Z,152.00
2017-08-18T05:40:35.934Z,164.00
2017-08-18T05:41:35.917Z,180.00
2017-08-18T05:42:35.943Z,200.00
2017-08-18T05:43:35.893Z,208.00
2017-08-18T05:44:35.892Z,224.00
2017-08-18T05:45:35.880Z,232.00
2017-08-18T05:46:35.902Z,244.00
2017-08-18T05:47:36.082Z,264.00
2017-08-18T05:48:35.872Z,280.00
2017-08-18T05:49:35.865Z,296.00
2017-08-18T05:50:35.864Z,304.00
2017-08-18T05:51:35.854Z,300.00
2017-08-18T05:52:35.849Z,300.00
2017-08-18T05:53:36.185Z,308.00
2017-08-18T05:54:35.834Z,316.00
2017-08-18T05:55:35.817Z,320.00
2017-08-18T05:56:35.814Z,328.00
2017-08-18T05:57:35.801Z,320.00
2017-08-18T05:58:35.798Z,296.00
2017-08-18T05:59:36.548Z,288.00
2017-08-18T06:00:35.789Z,292.00
2017-08-18T06:01:35.772Z,300.00
2017-08-18T06:02:35.782Z,312.00
2017-08-18T06:03:35.764Z,324.00
2017-08-18T06:04:35.765Z,356.00
2017-08-18T06:05:36.183Z,368.00
2017-08-18T06:06:35.739Z,376.00
2017-08-18T06:07:35.737Z,396.00
2017-08-18T06:08:35.725Z,408.00
2017-08-18T06:09:35.720Z,424.00
2017-08-18T06:10:35.731Z,436.00
2017-08-18T06:11:35.749Z,424.00
2017-08-18T06:12:35.711Z,412.00
2017-08-18T06:13:35.705Z,396.00
2017-08-18T06:14:35.697Z,364.00
2017-08-18T06:15:35.695Z,336.00
2017-08-18T06:16:35.878Z,312.00
2017-08-18T06:17:35.677Z,296.00
2017-08-18T06:18:35.655Z,284.00
2017-08-18T06:19:35.653Z,268.00
2017-08-18T06:20:35.661Z,260.00
2017-08-18T06:21:35.636Z,256.00
2017-08-18T06:22:35.956Z,248.00
2017-08-18T06:23:35.626Z,240.00
2017-08-18T06:24:35.620Z,220.00
2017-08-18T06:25:35.609Z,212.00
2017-08-18T06:26:35.616Z,204.00
2017-08-18T06:27:35.605Z,216.00
2017-08-18T06:28:36.038Z,232.00
2017-08-18T06:29:35.587Z,256.00
2017-08-18T06:30:35.580Z,252.00
2017-08-18T06:31:35.590Z,236.00
2017-08-18T06:32:35.571Z,236.00
2017-08-18T06:33:35.567Z,220.00
2017-08-18T06:34:35.904Z,216.00
2017-08-18T06:35:35.541Z,208.00
2017-08-18T06:36:35.547Z,204.00
2017-08-18T06:37:35.538Z,208.00
2017-08-18T06:38:35.524Z,224.00
2017-08-18T06:39:35.518Z,236.00
2017-08-18T06:40:35.737Z,256.00
2017-08-18T06:41:35.499Z,260.00
2017-08-18T06:42:35.509Z,276.00
2017-08-18T06:43:35.494Z,284.00
2017-08-18T06:44:35.499Z,296.00
2017-08-18T06:45:35.490Z,288.00
2017-08-18T06:46:35.768Z,284.00
2017-08-18T06:47:35.483Z,276.00
2017-08-18T06:48:35.466Z,264.00
2017-08-18T06:49:35.447Z,260.00
2017-08-18T06:50:35.460Z,256.00
2017-08-18T06:51:35.447Z,252.00
2017-08-18T06:52:35.657Z,248.00
2017-08-18T06:53:35.431Z,244.00
2017-08-18T06:54:35.437Z,244.00
2017-08-18T06:55:35.422Z,244.00
2017-08-18T06:56:35.415Z,240.00
2017-08-18T06:57:35.405Z,240.00
2017-08-18T06:58:35.678Z,252.00
2017-08-18T06:59:35.390Z,264.00
2017-08-18T07:00:35.384Z,280.00
2017-08-18T07:01:35.367Z,308.00
2017-08-18T07:02:35.369Z,340.00
2017-08-18T07:03:35.353Z,368.00
2017-08-18T07:04:35.781Z,384.00
2017-08-18T07:05:35.361Z,408.00
2017-08-18T07:06:35.335Z,456.00
2017-08-18T07:07:35.340Z,492.00
2017-08-18T07:08:35.323Z,524.00
2017-08-18T07:09:35.321Z,556.00
2017-08-18T07:10:35.641Z,608.00
2017-08-18T07:11:35.308Z,632.00
2017-08-18T07:12:35.298Z,648.00
2017-08-18T07:13:35.280Z,676.00
2017-08-18T07:14:35.290Z,688.00
2017-08-18T07:15:35.283Z,696.00
2017-08-18T07:16:35.567Z,728.00
2017-08-18T07:17:35.253Z,724.00
2017-08-18T07:18:35.251Z,748.00
2017-08-18T07:19:35.246Z,760.00
2017-08-18T07:20:35.256Z,756.00
2017-08-18T07:21:35.231Z,752.00
2017-08-18T07:22:35.253Z,744.00
2017-08-18T07:23:35.214Z,720.00
2017-08-18T07:24:35.208Z,692.00
2017-08-18T07:25:35.211Z,628.00
2017-08-18T07:26:35.203Z,584.00
2017-08-18T07:27:35.636Z,604.00
2017-08-18T07:28:35.181Z,560.00
2017-08-18T07:29:35.184Z,528.00
2017-08-18T07:30:35.178Z,588.00
2017-08-18T07:31:35.172Z,604.00
2017-08-18T07:32:35.164Z,616.00
2017-08-18T07:33:35.347Z,564.00
2017-08-18T07:34:35.148Z,568.00
2017-08-18T07:35:35.141Z,528.00
2017-08-18T07:36:35.126Z,520.00
2017-08-18T07:37:35.117Z,524.00
2017-08-18T07:38:35.118Z,528.00
2017-08-18T07:39:35.544Z,512.00
2017-08-18T07:40:35.109Z,476.00
2017-08-18T07:41:35.097Z,492.00
2017-08-18T07:42:35.080Z,556.00
2017-08-18T07:43:35.079Z,596.00
2017-08-18T07:44:35.065Z,612.00
2017-08-18T07:45:35.494Z,612.00
2017-08-18T07:46:35.050Z,620.00
2017-08-18T07:47:35.060Z,616.00
2017-08-18T07:48:35.051Z,616.00
2017-08-18T07:49:35.046Z,608.00
2017-08-18T07:50:35.022Z,612.00
2017-08-18T07:51:35.072Z,584.00
2017-08-18T07:52:35.010Z,536.00
2017-08-18T07:53:35.002Z,496.00
2017-08-18T07:54:35.007Z,536.00
2017-08-18T07:55:35.424Z,472.00
2017-08-18T07:56:34.985Z,464.00
2017-08-18T07:57:34.971Z,480.00
2017-08-18T07:58:34.987Z,464.00
2017-08-18T07:59:34.963Z,456.00
2017-08-18T08:00:34.959Z,484.00
2017-08-18T08:01:35.239Z,476.00
2017-08-18T08:02:34.949Z,444.00
2017-08-18T08:03:34.938Z,456.00
2017-08-18T08:04:35.722Z,472.00
2017-08-18T08:05:34.933Z,492.00
2017-08-18T08:06:34.918Z,540.00
2017-08-18T08:07:35.331Z,580.00
2017-08-18T08:08:34.892Z,600.00
2017-08-18T08:09:34.897Z,608.00
2017-08-18T08:10:34.896Z,608.00
2017-08-18T08:11:34.875Z,628.00
2017-08-18T08:12:34.880Z,636.00
2017-08-18T08:13:34.899Z,644.00
2017-08-18T08:14:34.858Z,652.00
2017-08-18T08:15:34.845Z,628.00
2017-08-18T08:16:34.879Z,604.00
2017-08-18T08:17:34.845Z,700.00
2017-08-18T08:18:34.839Z,748.00
2017-08-18T08:19:34.833Z,828.00
2017-08-18T08:20:35.635Z,864.00
2017-08-18T08:21:35.201Z,860.00
2017-08-18T08:22:34.820Z,876.00
2017-08-18T08:23:34.794Z,888.00
2017-08-18T08:24:34.787Z,880.00
2017-08-18T08:25:34.793Z,812.00
2017-08-18T08:26:34.777Z,780.00
2017-08-18T08:27:35.065Z,760.00
2017-08-18T08:28:34.766Z,756.00
2017-08-18T08:29:34.763Z,768.00
2017-08-18T08:30:34.746Z,732.00
2017-08-18T08:31:35.102Z,708.00
2017-08-18T08:32:35.522Z,680.00
2017-08-18T08:33:35.666Z,672.00
2017-08-18T08:34:34.851Z,640.00
2017-08-18T08:35:34.855Z,628.00
2017-08-18T08:36:34.888Z,576.00
2017-08-18T08:37:34.797Z,560.00
2017-08-18T08:38:34.688Z,556.00
2017-08-18T08:39:35.064Z,528.00
2017-08-18T08:40:34.712Z,520.00
2017-08-18T08:41:34.666Z,532.00
2017-08-18T08:42:35.328Z,544.00
2017-08-18T08:43:34.655Z,544.00
2017-08-18T08:44:34.660Z,588.00
2017-08-18T08:45:34.668Z,640.00
2017-08-18T08:46:34.641Z,688.00
2017-08-18T08:47:34.627Z,728.00
2017-08-18T08:48:34.634Z,820.00
2017-08-18T08:49:34.623Z,884.00
2017-08-18T08:50:34.984Z,904.00
2017-08-18T08:51:34.610Z,916.00
2017-08-18T08:52:34.587Z,920.00
2017-08-18T08:53:34.587Z,928.00
2017-08-18T08:54:34.578Z,948.00
2017-08-18T08:55:34.572Z,960.00
2017-08-18T08:56:34.885Z,972.00
2017-08-18T08:57:34.565Z,960.00
2017-08-18T08:58:35.348Z,948.00
2017-08-18T08:59:34.988Z,932.00
2017-08-18T09:00:34.539Z,940.00
2017-08-18T09:01:34.525Z,948.00
2017-08-18T09:02:34.612Z,956.00
2017-08-18T09:03:34.525Z,972.00
2017-08-18T09:04:34.510Z,976.00
2017-08-18T09:05:34.930Z,1004.00
2017-08-18T09:06:34.506Z,1048.00
2017-08-18T09:07:34.484Z,1088.00
2017-08-18T09:08:34.486Z,1124.00
2017-08-18T09:09:34.484Z,1132.00
2017-08-18T09:10:34.481Z,1152.00
2017-08-18T09:11:34.892Z,1176.00
2017-08-18T09:12:34.468Z,1192.00
2017-08-18T09:13:34.452Z,1200.00
2017-08-18T09:14:34.451Z,1180.00
2017-08-18T09:15:34.455Z,1172.00
2017-08-18T09:16:34.435Z,1192.00
2017-08-18T09:17:34.475Z,1192.00
2017-08-18T09:18:34.424Z,1172.00
2017-08-18T09:19:34.412Z,1172.00
2017-08-18T09:20:34.407Z,1140.00
2017-08-18T09:21:34.416Z,1112.00
2017-08-18T09:22:34.383Z,1108.00
2017-08-18T09:23:34.387Z,1060.00
2017-08-18T09:24:34.369Z,1040.00
2017-08-18T09:25:34.359Z,1040.00
2017-08-18T09:26:34.661Z,1040.00
2017-08-18T09:27:34.354Z,1040.00
2017-08-18T09:28:34.359Z,1036.00
2017-08-18T09:29:34.344Z,1064.00
2017-08-18T09:30:34.538Z,1072.00
2017-08-18T09:31:34.338Z,1064.00
2017-08-18T09:32:34.882Z,1056.00
2017-08-18T09:33:34.466Z,1068.00
2017-08-18T09:34:34.314Z,1068.00
2017-08-18T09:35:34.315Z,1064.00
2017-08-18T09:36:34.287Z,1052.00
2017-08-18T09:37:34.292Z,1060.00
2017-08-18T09:38:34.312Z,1056.00
2017-08-18T09:39:34.269Z,1056.00
2017-08-18T09:40:34.262Z,1040.00
2017-08-18T09:41:34.275Z,1052.00
2017-08-18T09:42:34.246Z,1052.00
2017-08-18T09:43:34.463Z,1096.00
2017-08-18T09:44:34.234Z,1148.00
2017-08-18T09:45:34.250Z,1176.00
2017-08-18T09:46:34.233Z,1220.00
2017-08-18T09:47:34.216Z,1264.00
2017-08-18T09:48:34.219Z,1292.00
2017-08-18T09:49:34.584Z,1328.00
2017-08-18T09:50:34.205Z,1356.00
2017-08-18T09:51:34.203Z,1396.00
2017-08-18T09:52:34.182Z,1436.00
2017-08-18T09:53:34.180Z,1500.00
2017-08-18T09:54:34.177Z,1536.00
2017-08-18T09:55:34.480Z,1640.00
2017-08-18T09:56:34.160Z,1700.00
2017-08-18T09:57:34.146Z,1820.00
2017-08-18T09:58:34.149Z,1892.00
2017-08-18T09:59:34.133Z,1828.00
2017-08-18T10:00:34.140Z,1824.00
2017-08-18T10:01:34.148Z,1864.00
2017-08-18T10:02:34.130Z,1956.00
2017-08-18T10:03:34.551Z,1936.00
2017-08-18T10:04:34.105Z,1896.00
2017-08-18T10:05:34.105Z,1976.00
2017-08-18T10:06:34.086Z,1876.00
2017-08-18T10:07:34.081Z,1828.00
2017-08-18T10:08:34.087Z,1856.00
2017-08-18T10:09:34.504Z,1860.00
2017-08-18T10:10:34.090Z,1944.00
2017-08-18T10:11:34.075Z,1932.00
2017-08-18T10:12:34.060Z,1832.00
2017-08-18T10:13:34.039Z,1828.00
2017-08-18T10:14:34.044Z,1972.00
2017-08-18T10:15:34.681Z,2016.00
2017-08-18T10:16:34.033Z,1940.00
2017-08-18T10:17:34.029Z,1904.00
2017-08-18T10:18:34.012Z,1996.00
2017-08-18T10:19:34.015Z,2048.00
2017-08-18T10:20:33.996Z,2104.00
2017-08-18T10:21:34.359Z,2168.00
2017-08-18T10:22:33.994Z,2164.00
2017-08-18T10:23:33.983Z,1996.00
2017-08-18T10:24:33.986Z,1924.00
2017-08-18T10:25:33.963Z,1928.00
2017-08-18T10:26:33.957Z,1876.00
2017-08-18T10:27:34.320Z,1832.00
2017-08-18T10:28:33.946Z,1788.00
2017-08-18T10:29:33.962Z,1636.00
2017-08-18T10:30:33.926Z,1616.00
2017-08-18T10:31:33.932Z,1512.00
2017-08-18T10:32:33.914Z,1456.00
2017-08-18T10:33:34.254Z,1428.00
2017-08-18T10:34:33.931Z,1464.00
2017-08-18T10:35:33.911Z,1372.00
2017-08-18T10:36:33.900Z,1348.00
2017-08-18T10:37:33.890Z,1452.00
2017-08-18T10:38:33.889Z,1624.00
2017-08-18T10:39:33.912Z,1768.00
2017-08-18T10:40:33.874Z,1780.00
2017-08-18T10:41:33.860Z,1792.00
2017-08-18T10:42:33.855Z,1780.00
2017-08-18T10:43:33.845Z,1792.00
2017-08-18T10:44:34.263Z,1848.00
2017-08-18T10:45:33.831Z,1860.00
2017-08-18T10:46:33.835Z,1856.00
2017-08-18T10:47:33.830Z,1864.00
2017-08-18T10:48:33.813Z,1848.00
2017-08-18T10:49:33.808Z,1740.00
2017-08-18T10:50:34.238Z,1928.00
2017-08-18T10:51:33.815Z,1916.00
2017-08-18T10:52:33.796Z,1836.00
2017-08-18T10:53:34.702Z,1772.00
2017-08-18T10:54:33.784Z,1732.00
2017-08-18T10:55:33.779Z,1628.00
2017-08-18T10:56:34.195Z,1552.00
2017-08-18T10:57:33.760Z,1508.00
2017-08-18T10:58:33.747Z,1404.00
2017-08-18T10:59:33.756Z,1332.00
2017-08-18T11:00:34.382Z,1256.00
2017-08-18T11:01:33.740Z,1212.00
2017-08-18T11:02:33.753Z,1192.00
2017-08-18T11:03:34.079Z,1184.00
2017-08-18T11:04:34.106Z,1172.00
2017-08-18T11:05:33.713Z,1176.00
2017-08-18T11:06:33.716Z,1156.00
2017-08-18T11:07:33.691Z,1156.00
2017-08-18T11:08:33.695Z,1144.00
2017-08-18T11:09:33.689Z,1160.00
2017-08-18T11:10:34.032Z,1152.00
2017-08-18T11:11:33.659Z,1140.00
2017-08-18T11:12:33.657Z,1124.00
2017-08-18T11:13:33.674Z,1152.00
2017-08-18T11:14:33.644Z,1164.00
2017-08-18T11:15:33.638Z,1192.00
2017-08-18T11:16:33.982Z,1208.00
2017-08-18T11:17:33.639Z,1260.00
2017-08-18T11:18:33.624Z,1312.00
2017-08-18T11:19:33.613Z,1392.00
2017-08-18T11:20:33.622Z,1512.00
2017-08-18T11:21:33.611Z,1624.00
2017-08-18T11:22:33.909Z,1732.00
2017-08-18T11:23:33.593Z,1796.00
2017-08-18T11:24:33.577Z,1808.00
2017-08-18T11:25:33.580Z,1772.00
2017-08-18T11:26:33.574Z,1700.00
2017-08-18T11:27:33.559Z,1560.00
2017-08-18T11:28:33.908Z,1484.00
2017-08-18T11:29:33.553Z,1544.00
2017-08-18T11:30:33.548Z,1564.00
2017-08-18T11:31:33.543Z,1612.00
2017-08-18T11:32:33.538Z,1688.00
2017-08-18T11:33:33.514Z,1636.00
2017-08-18T11:34:33.727Z,1584.00
2017-08-18T11:35:33.519Z,1576.00
2017-08-18T11:36:33.493Z,1556.00
2017-08-18T11:37:33.494Z,1728.00
2017-08-18T11:38:33.484Z,1760.00
2017-08-18T11:39:33.477Z,1752.00
2017-08-18T11:40:33.924Z,1800.00
2017-08-18T11:41:33.470Z,1740.00
2017-08-18T11:42:33.465Z,1780.00
2017-08-18T11:43:33.466Z,1700.00
2017-08-18T11:44:33.454Z,1636.00
2017-08-18T11:45:33.451Z,1772.00
2017-08-18T11:46:33.645Z,1848.00
2017-08-18T11:47:33.441Z,1856.00
2017-08-18T11:48:33.431Z,1940.00
2017-08-18T11:49:33.429Z,1976.00
2017-08-18T11:50:33.420Z,1960.00
2017-08-18T11:51:33.401Z,2008.00
2017-08-18T11:52:33.738Z,2004.00
2017-08-18T11:53:33.400Z,1996.00
2017-08-18T11:54:33.380Z,2000.00
2017-08-18T11:55:33.391Z,2024.00
2017-08-18T11:56:33.376Z,2028.00
2017-08-18T11:57:33.381Z,1948.00
2017-08-18T11:58:33.813Z,1932.00
2017-08-18T11:59:33.347Z,1928.00
2017-08-18T12:00:33.355Z,1880.00
2017-08-18T12:01:33.333Z,1912.00
2017-08-18T12:02:33.343Z,1964.00
2017-08-18T12:03:33.334Z,1928.00
2017-08-18T12:04:33.725Z,1912.00
2017-08-18T12:05:33.323Z,1904.00
2017-08-18T12:06:33.308Z,1880.00
2017-08-18T12:07:33.308Z,1876.00
2017-08-18T12:08:33.304Z,1864.00
2017-08-18T12:09:33.297Z,1784.00
2017-08-18T12:10:33.696Z,1704.00
2017-08-18T12:11:33.301Z,1712.00
2017-08-18T12:12:33.271Z,1636.00
2017-08-18T12:13:33.269Z,1660.00
2017-08-18T12:14:33.258Z,1656.00
2017-08-18T12:15:33.265Z,1624.00
2017-08-18T12:16:33.526Z,1540.00
2017-08-18T12:17:33.236Z,1436.00
2017-08-18T12:18:33.231Z,1276.00
2017-08-18T12:19:33.238Z,1260.00
2017-08-18T12:20:33.214Z,1200.00
2017-08-18T12:21:33.275Z,1136.00
2017-08-18T12:22:33.260Z,1172.00
2017-08-18T12:23:33.214Z,1112.00
2017-08-18T12:24:33.236Z,1076.00
2017-08-18T12:25:33.201Z,1004.00
2017-08-18T12:26:33.645Z,892.00
2017-08-18T12:27:33.187Z,808.00
2017-08-18T12:28:54.173Z,724.00
2017-08-18T12:29:33.198Z,712.00
2017-08-18T12:30:33.167Z,668.00
2017-08-18T12:31:33.159Z,604.00
2017-08-18T12:32:33.587Z,636.00
2017-08-18T12:33:33.144Z,632.00
2017-08-18T12:34:33.127Z,676.00
2017-08-18T12:35:33.136Z,696.00
2017-08-18T12:36:33.114Z,696.00
2017-08-18T12:37:33.110Z,656.00
2017-08-18T12:38:33.419Z,608.00